Terminal Aerodrome Forecast
Issued by NWS

Home | Current Version | Previous Version | Text Only | Print | Product List | Glossary On
Versions: 1 2 3 4 5 6 7 8 9 10 11 12 13 14 15 16 17 18 19 20 21 22 23 24
524
FTUS45 KPSR 111140
TAFIWA
TAF
KIWA 111140Z 1112/1212 11007KT P6SM FEW250
     FM112100 29004KT P6SM FEW250
     FM120300 12006KT P6SM SKC
      AMD LTD TO CLD VIS AND WIND TIL 111300=

USA.gov is the U.S. government's official web portal to all federal, state and local government web resources and services.